Time;durP1;ratioP1;P1;durP2;ratioP2;P2;SDS_P1;SDS_P2;PMS_P1;PMS_P2;Temp;Humidity;BMP_temperature;BMP_pressure;BME280_temperature;BME280_humidity;BME280_pressure;Samples;Min_cycle;Max_cycle;Signal;HPM_P1;HPM_P2
2023/12/07 00:01:11;;;;;;;12.70;8.45;;;1.10;99.90;;;;;;5037617;28;20053;-64
2023/12/07 00:03:37;;;;;;;12.05;9.13;;;1.20;99.90;;;;;;5037028;28;20148;-64
2023/12/07 00:06:04;;;;;;;14.15;8.70;;;1.20;99.90;;;;;;5036670;28;20532;-63
2023/12/07 00:08:30;;;;;;;14.07;8.27;;;1.00;99.90;;;;;;5037158;28;20045;-65
2023/12/07 00:10:56;;;;;;;14.25;10.85;;;1.20;99.90;;;;;;5037390;28;20388;-64
2023/12/07 00:13:22;;;;;;;13.10;8.55;;;1.10;99.90;;;;;;5036944;28;20060;-64
2023/12/07 00:15:49;;;;;;;12.93;8.73;;;1.00;99.90;;;;;;5036609;28;20056;-65
2023/12/07 00:18:15;;;;;;;13.30;9.25;;;1.00;99.90;;;;;;5036778;28;20053;-65
2023/12/07 00:20:42;;;;;;;12.45;8.98;;;1.20;99.90;;;;;;5036436;28;20057;-64
2023/12/07 00:23:08;;;;;;;11.52;8.38;;;1.00;99.90;;;;;;5036167;28;20057;-65
2023/12/07 00:25:34;;;;;;;15.60;10.05;;;0.90;99.90;;;;;;5036064;28;20049;-65
2023/12/07 00:28:01;;;;;;;12.77;9.50;;;1.00;99.90;;;;;;5036349;28;20082;-64
2023/12/07 00:30:27;;;;;;;13.02;9.35;;;1.10;99.90;;;;;;5036819;28;20045;-64
2023/12/07 00:32:53;;;;;;;14.07;9.15;;;0.90;99.90;;;;;;5068665;28;20049;-64
2023/12/07 00:35:22;;;;;;;14.18;9.35;;;0.90;99.90;;;;;;5069561;28;20045;-65
2023/12/07 00:37:48;;;;;;;15.70;11.38;;;1.10;99.90;;;;;;5036618;28;20060;-64
2023/12/07 00:40:15;;;;;;;15.40;10.77;;;1.00;99.90;;;;;;5070437;28;20052;-65
2023/12/07 00:42:43;;;;;;;14.55;9.38;;;1.00;99.90;;;;;;5037175;28;20049;-64
2023/12/07 00:45:11;;;;;;;13.88;9.57;;;0.90;99.90;;;;;;5070373;28;20358;-63
2023/12/07 00:47:37;;;;;;;14.80;10.02;;;1.00;99.90;;;;;;5036990;28;20144;-64
2023/12/07 00:50:04;;;;;;;14.38;9.65;;;1.10;99.90;;;;;;5069866;28;20465;-64
2023/12/07 00:52:30;;;;;;;11.60;8.90;;;1.10;99.90;;;;;;5036954;28;20045;-64
2023/12/07 00:54:57;;;;;;;13.27;9.63;;;0.90;99.90;;;;;;5036730;28;20064;-64
2023/12/07 00:57:23;;;;;;;15.27;9.63;;;1.10;99.90;;;;;;5069617;28;20076;-65
2023/12/07 00:59:49;;;;;;;16.17;9.98;;;0.90;99.90;;;;;;5036358;28;20087;-64
2023/12/07 01:02:16;;;;;;;14.32;9.13;;;1.00;99.90;;;;;;5036206;28;20061;-64
2023/12/07 01:04:42;;;;;;;14.88;10.00;;;0.90;99.90;;;;;;5036250;28;20048;-63
2023/12/07 01:07:08;;;;;;;13.70;10.23;;;1.00;99.90;;;;;;5069206;28;20049;-65
2023/12/07 01:09:36;;;;;;;17.27;10.77;;;0.90;99.90;;;;;;5036047;28;20045;-64
2023/12/07 01:12:03;;;;;;;15.82;9.32;;;0.90;99.90;;;;;;5069619;28;20087;-65
2023/12/07 01:14:29;;;;;;;16.67;10.18;;;1.10;99.90;;;;;;5037354;28;20053;-63
2023/12/07 01:16:56;;;;;;;15.18;9.35;;;1.00;99.90;;;;;;5052399;28;20049;-64
2023/12/07 01:19:22;;;;;;;14.23;9.00;;;1.00;99.90;;;;;;5035332;28;20048;-63
2023/12/07 01:21:48;;;;;;;16.00;10.27;;;1.20;99.90;;;;;;5036409;28;20068;-63
2023/12/07 01:24:15;;;;;;;14.70;9.55;;;1.20;99.90;;;;;;5036590;28;20144;-64
2023/12/07 01:26:41;;;;;;;16.00;9.80;;;1.10;99.90;;;;;;5053459;28;20053;-64
2023/12/07 01:29:07;;;;;;;15.38;9.85;;;1.10;99.90;;;;;;5036172;28;20056;-64
2023/12/07 01:31:33;;;;;;;14.48;9.73;;;1.10;99.90;;;;;;5036897;28;20049;-64
2023/12/07 01:34:00;;;;;;;15.95;10.35;;;1.10;99.90;;;;;;5053583;28;20049;-65
2023/12/07 01:36:26;;;;;;;14.65;9.77;;;1.10;99.90;;;;;;5036407;28;20045;-64
2023/12/07 01:38:52;;;;;;;15.15;8.77;;;1.20;99.90;;;;;;5036651;28;20055;-65
2023/12/07 01:41:19;;;;;;;15.85;9.32;;;1.10;99.90;;;;;;5036129;28;20053;-64
2023/12/07 01:43:46;;;;;;;14.48;9.43;;;1.00;99.90;;;;;;5019803;28;20458;-64
2023/12/07 01:46:13;;;;;;;16.58;9.68;;;1.20;99.90;;;;;;5035563;28;20148;-64
2023/12/07 01:48:40;;;;;;;15.43;11.68;;;1.00;99.90;;;;;;5035230;28;20389;-64
2023/12/07 01:51:07;;;;;;;17.02;10.07;;;1.20;99.90;;;;;;5051937;28;20049;-63
2023/12/07 01:53:39;;;;;;;15.23;9.48;;;0.90;99.90;;;;;;5052781;28;20413;-63
2023/12/07 01:56:07;;;;;;;14.63;9.07;;;1.00;99.90;;;;;;5035505;28;20059;-64
2023/12/07 01:58:34;;;;;;;14.32;9.88;;;1.00;99.90;;;;;;5035676;28;20390;-64
2023/12/07 02:01:02;;;;;;;15.95;9.80;;;0.90;99.90;;;;;;5035774;28;20454;-64
2023/12/07 02:03:29;;;;;;;15.93;9.15;;;0.80;99.90;;;;;;5052561;28;20056;-64
2023/12/07 02:05:58;;;;;;;14.65;9.65;;;0.80;99.90;;;;;;5035674;28;20469;-64
2023/12/07 02:08:25;;;;;;;14.70;9.30;;;0.80;99.90;;;;;;5035941;28;20045;-65
2023/12/07 02:10:52;;;;;;;15.27;10.02;;;0.90;99.90;;;;;;5036060;28;20052;-63
2023/12/07 02:13:20;;;;;;;15.60;10.68;;;0.70;99.90;;;;;;5052382;28;20501;-64
2023/12/07 02:15:47;;;;;;;15.13;9.43;;;0.80;99.90;;;;;;5035749;28;20053;-65
2023/12/07 02:18:27;;;;;;;14.10;9.68;;;0.70;99.90;;;;;;5052622;28;20380;-65
2023/12/07 02:21:08;;;;;;;15.48;9.40;;;0.70;99.90;;;;;;5035664;28;20525;-64
2023/12/07 02:23:37;;;;;;;15.52;10.45;;;0.60;99.90;;;;;;5035953;28;20057;-64
2023/12/07 02:26:06;;;;;;;15.55;10.90;;;0.60;99.90;;;;;;5035520;28;20048;-65
2023/12/07 02:28:33;;;;;;;17.48;10.88;;;0.70;99.90;;;;;;5034779;28;20057;-64
2023/12/07 02:30:59;;;;;;;16.77;10.40;;;0.60;99.90;;;;;;5034413;28;20481;-65
2023/12/07 02:33:25;;;;;;;14.10;9.57;;;0.70;99.90;;;;;;5034890;28;20063;-65
2023/12/07 02:35:52;;;;;;;14.52;9.63;;;0.60;99.90;;;;;;5051594;28;20563;-65
2023/12/07 02:38:20;;;;;;;17.95;10.77;;;0.60;99.90;;;;;;5035357;28;20053;-64
2023/12/07 02:40:48;;;;;;;14.43;10.43;;;0.70;99.90;;;;;;5035824;28;20057;-64
2023/12/07 02:43:15;;;;;;;16.35;10.73;;;0.60;99.90;;;;;;5051617;28;20480;-64
2023/12/07 02:45:42;;;;;;;17.80;10.48;;;0.60;99.90;;;;;;5034654;28;20049;-63
2023/12/07 02:48:08;;;;;;;15.57;11.02;;;0.70;99.90;;;;;;5034379;28;20132;-64
2023/12/07 02:50:35;;;;;;;15.80;10.73;;;0.60;99.90;;;;;;5051650;28;20068;-65
2023/12/07 02:53:01;;;;;;;17.50;11.18;;;0.50;99.90;;;;;;5034306;28;20051;-65
2023/12/07 02:55:27;;;;;;;14.18;10.82;;;0.60;99.90;;;;;;5050358;28;20098;-64
2023/12/07 02:57:54;;;;;;;15.77;10.93;;;0.70;99.90;;;;;;5034924;28;20044;-63
2023/12/07 03:00:21;;;;;;;16.35;11.13;;;0.60;99.90;;;;;;5034619;28;20045;-64
2023/12/07 03:02:48;;;;;;;17.13;11.10;;;0.60;99.90;;;;;;5034832;28;20330;-64
2023/12/07 03:05:14;;;;;;;20.50;11.95;;;0.80;99.90;;;;;;5034517;28;20495;-63
2023/12/07 03:07:40;;;;;;;19.38;11.57;;;0.90;99.90;;;;;;5034825;28;20052;-64
2023/12/07 03:10:07;;;;;;;17.30;12.40;;;0.80;99.90;;;;;;5051160;28;20369;-64
2023/12/07 03:12:33;;;;;;;14.02;10.18;;;0.70;99.90;;;;;;5034235;28;20048;-64
2023/12/07 03:15:00;;;;;;;;;;;0.70;99.90;;;;;;5031247;28;20076;-64
2023/12/07 03:17:26;;;;;;;15.15;10.45;;;0.60;99.90;;;;;;5047471;28;19932;-63
2023/12/07 03:19:52;;;;;;;17.73;12.38;;;0.60;99.90;;;;;;5015184;28;20471;-64
2023/12/07 03:22:19;;;;;;;18.58;11.25;;;0.60;99.90;;;;;;5014617;28;20053;-64
2023/12/07 03:24:48;;;;;;;18.17;12.55;;;0.50;99.90;;;;;;5015163;28;20500;-64
2023/12/07 03:27:14;;;;;;;16.90;12.23;;;0.50;99.90;;;;;;5047713;28;20045;-64
2023/12/07 03:29:40;;;;;;;20.05;12.02;;;0.50;99.90;;;;;;5015076;28;20052;-64
2023/12/07 03:32:07;;;;;;;19.33;13.05;;;0.50;99.90;;;;;;5047840;28;20060;-64
2023/12/07 03:34:33;;;;;;;18.20;12.82;;;0.50;99.90;;;;;;5032183;28;20361;-63
2023/12/07 03:37:00;;;;;;;15.73;11.43;;;0.50;99.90;;;;;;5033976;28;20140;-64
2023/12/07 03:39:26;;;;;;;17.88;12.40;;;0.50;99.90;;;;;;5035043;28;20049;-64
2023/12/07 03:41:53;;;;;;;17.58;11.95;;;0.40;99.90;;;;;;5033180;28;20068;-64
2023/12/07 03:44:19;;;;;;;16.38;11.85;;;0.50;99.90;;;;;;5051255;28;20068;-64
2023/12/07 03:46:46;;;;;;;20.25;12.63;;;0.50;99.90;;;;;;5033967;28;20080;-64
2023/12/07 03:49:12;;;;;;;18.02;12.40;;;0.50;99.90;;;;;;5030714;28;20080;-64
2023/12/07 03:51:38;;;;;;;18.98;13.38;;;0.50;99.90;;;;;;5030538;28;20373;-64
2023/12/07 03:54:05;;;;;;;19.50;12.23;;;0.60;99.90;;;;;;5030739;28;20389;-63
2023/12/07 03:56:33;;;;;;;18.63;12.20;;;0.60;99.90;;;;;;5046831;28;20480;-65
2023/12/07 03:59:00;;;;;;;19.98;12.48;;;0.50;99.90;;;;;;5030020;28;20355;-64
2023/12/07 04:01:28;;;;;;;20.80;12.88;;;0.50;99.90;;;;;;5047119;28;20062;-64
2023/12/07 04:03:56;;;;;;;18.17;12.98;;;0.50;99.90;;;;;;5014279;28;20053;-64
2023/12/07 04:06:23;;;;;;;18.05;12.90;;;0.70;99.90;;;;;;5048138;28;20085;-64
2023/12/07 04:08:50;;;;;;;18.85;12.95;;;0.80;99.90;;;;;;5034403;28;20426;-65
2023/12/07 04:11:17;;;;;;;18.17;12.82;;;0.70;99.90;;;;;;5034211;28;20497;-65
2023/12/07 04:13:43;;;;;;;18.60;12.82;;;0.50;99.90;;;;;;5034914;28;20136;-64
2023/12/07 04:16:10;;;;;;;18.02;12.60;;;0.70;99.90;;;;;;5034513;28;20060;-65
2023/12/07 04:18:37;;;;;;;21.30;12.55;;;0.50;99.90;;;;;;5034607;28;20064;-65
2023/12/07 04:21:05;;;;;;;18.95;13.07;;;0.70;99.90;;;;;;5018211;28;20057;-64
2023/12/07 04:23:31;;;;;;;17.02;11.98;;;0.60;99.90;;;;;;5034348;28;20065;-64
2023/12/07 04:25:58;;;;;;;18.45;13.07;;;0.60;99.90;;;;;;5035029;28;20543;-64
2023/12/07 04:28:24;;;;;;;18.92;13.45;;;0.60;99.90;;;;;;5067861;28;20055;-64
2023/12/07 04:30:50;;;;;;;22.98;14.88;;;0.60;99.90;;;;;;5034492;28;20386;-63
2023/12/07 04:33:17;;;;;;;19.63;14.68;;;0.70;99.90;;;;;;5034531;28;20374;-64
2023/12/07 04:35:43;;;;;;;19.52;13.15;;;0.70;99.90;;;;;;5033914;28;20046;-64
2023/12/07 04:38:09;;;;;;;22.20;14.48;;;0.70;99.90;;;;;;5034297;28;20056;-64
2023/12/07 04:40:36;;;;;;;18.83;12.90;;;0.60;99.90;;;;;;5051424;28;20117;-63
2023/12/07 04:43:03;;;;;;;17.48;12.85;;;0.80;99.90;;;;;;5030308;28;20052;-64
2023/12/07 04:45:29;;;;;;;18.38;12.73;;;0.70;99.90;;;;;;5014433;28;20478;-64
2023/12/07 04:47:57;;;;;;;20.70;14.30;;;0.90;99.90;;;;;;5015893;28;20057;-65
2023/12/07 04:50:23;;;;;;;17.70;13.10;;;0.70;99.90;;;;;;5017634;28;20041;-64
2023/12/07 04:52:50;;;;;;;20.77;13.88;;;0.90;99.90;;;;;;5019778;28;20049;-65
2023/12/07 04:55:17;;;;;;;20.38;14.13;;;1.00;99.90;;;;;;5053371;28;20134;-63
2023/12/07 04:57:43;;;;;;;19.40;14.07;;;1.00;99.90;;;;;;5037102;28;20041;-64
2023/12/07 05:00:11;;;;;;;23.20;14.55;;;0.90;99.90;;;;;;5070730;28;20055;-64
2023/12/07 05:02:37;;;;;;;20.63;13.80;;;0.90;99.90;;;;;;5037830;28;20500;-64
2023/12/07 05:05:05;;;;;;;19.48;13.75;;;0.90;99.90;;;;;;5069697;28;20057;-64
2023/12/07 05:07:31;;;;;;;21.50;13.95;;;1.00;99.90;;;;;;5036635;28;20052;-63
2023/12/07 05:09:57;;;;;;;21.83;13.90;;;1.00;99.90;;;;;;5036152;28;20460;-64
2023/12/07 05:12:24;;;;;;;21.08;13.57;;;1.00;99.90;;;;;;5036654;28;20061;-63
2023/12/07 05:14:51;;;;;;;19.63;13.65;;;1.10;99.90;;;;;;5036737;28;20472;-64
2023/12/07 05:17:17;;;;;;;18.80;12.73;;;0.90;99.90;;;;;;5036330;28;20045;-65
2023/12/07 05:19:45;;;;;;;20.02;13.60;;;1.00;99.90;;;;;;5052368;28;20472;-64
2023/12/07 05:22:11;;;;;;;20.02;13.68;;;1.10;99.90;;;;;;5054234;28;20064;-65
2023/12/07 05:24:37;;;;;;;17.77;12.95;;;0.90;99.90;;;;;;5036101;28;20064;-63
2023/12/07 05:27:04;;;;;;;20.33;13.23;;;0.80;99.90;;;;;;5036891;28;20052;-63
2023/12/07 05:29:30;;;;;;;20.17;14.15;;;1.00;99.90;;;;;;5036235;28;20067;-65
2023/12/07 05:31:57;;;;;;;20.38;14.95;;;1.00;99.90;;;;;;5036014;28;20049;-64
2023/12/07 05:34:23;;;;;;;20.30;13.40;;;0.90;99.90;;;;;;5036079;28;20055;-65
2023/12/07 05:36:49;;;;;;;18.25;12.43;;;0.70;99.90;;;;;;5052425;28;20067;-63
2023/12/07 05:39:17;;;;;;;20.05;13.07;;;0.70;99.90;;;;;;5036425;28;20056;-64
2023/12/07 05:41:43;;;;;;;19.45;12.55;;;0.70;99.90;;;;;;5035700;28;20055;-64
2023/12/07 05:44:10;;;;;;;18.35;12.80;;;0.80;99.90;;;;;;5035710;28;20098;-64
2023/12/07 05:46:36;;;;;;;;;;;0.70;99.90;;;;;;5036255;28;20049;-64
2023/12/07 05:49:03;;;;;;;19.15;13.00;;;0.50;99.90;;;;;;5065719;28;19921;-64
2023/12/07 05:51:29;;;;;;;19.33;14.55;;;0.70;99.90;;;;;;5032451;28;20413;-63
2023/12/07 05:53:55;;;;;;;23.42;13.50;;;0.50;99.90;;;;;;5032786;28;20049;-63
2023/12/07 05:56:23;;;;;;;20.20;13.55;;;0.60;99.90;;;;;;5032362;28;20068;-63
2023/12/07 05:58:49;;;;;;;20.50;13.10;;;0.50;99.90;;;;;;5016213;28;20046;-63
2023/12/07 06:01:19;;;;;;;18.13;13.35;;;0.40;99.90;;;;;;5032108;28;20049;-63
2023/12/07 06:03:45;;;;;;;21.52;14.10;;;0.50;99.90;;;;;;5031764;28;20041;-63
2023/12/07 06:06:12;;;;;;;;;;;0.50;99.90;;;;;;5031464;28;20083;-64
2023/12/07 06:08:39;;;;;;;17.98;12.60;;;0.40;99.90;;;;;;5047534;28;20267;-64
2023/12/07 06:11:05;;;;;;;19.25;12.20;;;0.60;99.90;;;;;;5032696;28;20077;-63
2023/12/07 06:13:32;;;;;;;19.98;12.68;;;0.40;99.90;;;;;;5032198;28;20078;-64
2023/12/07 06:15:59;;;;;;;20.35;13.60;;;0.30;99.90;;;;;;5031995;28;20068;-63
2023/12/07 06:18:25;;;;;;;21.27;13.27;;;0.30;99.90;;;;;;5031652;28;20049;-64
2023/12/07 06:20:52;;;;;;;19.98;13.35;;;0.30;99.90;;;;;;5048036;28;20052;-64
2023/12/07 06:23:18;;;;;;;17.50;12.68;;;0.20;99.90;;;;;;5031900;28;20092;-63
2023/12/07 06:25:44;;;;;;;19.60;12.95;;;0.20;99.90;;;;;;5031108;28;20050;-63
2023/12/07 06:28:11;;;;;;;18.83;13.93;;;0.40;99.90;;;;;;5031030;28;20391;-63
2023/12/07 06:30:38;;;;;;;18.88;13.35;;;0.20;99.90;;;;;;5030023;28;20049;-64
2023/12/07 06:33:04;;;;;;;18.55;13.00;;;0.30;99.90;;;;;;5030785;28;20132;-63
2023/12/07 06:35:31;;;;;;;22.35;12.93;;;0.20;99.90;;;;;;5030378;28;20614;-64
2023/12/07 06:37:57;;;;;;;;;;;0.10;99.90;;;;;;5031307;28;20053;-63
2023/12/07 06:40:23;;;;;;;19.23;13.40;;;0.10;99.90;;;;;;5040447;28;19921;-63
2023/12/07 06:42:50;;;;;;;;;;;0.00;99.90;;;;;;5039594;28;20409;-64
2023/12/07 06:45:16;;;;;;;16.98;11.05;;;0.00;99.90;;;;;;5032958;28;19921;-63
2023/12/07 06:47:43;;;;;;;20.27;13.95;;;-0.10;99.90;;;;;;5030450;28;20053;-65
2023/12/07 06:50:10;;;;;;;18.90;13.02;;;0.00;99.90;;;;;;5012198;28;20136;-65
2023/12/07 06:52:37;;;;;;;19.77;13.65;;;-0.10;99.90;;;;;;5010715;28;20057;-63
2023/12/07 06:55:04;;;;;;;18.65;13.13;;;-0.30;99.90;;;;;;5010080;28;20355;-64
2023/12/07 06:57:30;;;;;;;18.73;12.25;;;-0.30;99.90;;;;;;5009916;28;20057;-64
2023/12/07 06:59:56;;;;;;;;;;;-0.30;99.90;;;;;;4994727;28;20152;-64
2023/12/07 07:02:23;;;;;;;19.55;12.55;;;-0.20;99.90;;;;;;5043386;28;19929;-65
2023/12/07 07:04:50;;;;;;;19.70;11.98;;;-0.20;99.90;;;;;;5010837;28;20123;-65
2023/12/07 07:07:16;;;;;;;19.38;12.90;;;0.00;99.90;;;;;;5024532;28;20046;-65
2023/12/07 07:09:42;;;;;;;17.55;12.65;;;-0.20;99.90;;;;;;5024940;28;20069;-64
2023/12/07 07:12:08;;;;;;;;;;;-0.20;99.90;;;;;;5009515;28;20045;-64
2023/12/07 07:14:35;;;;;;;29.42;16.55;;;-0.10;99.90;;;;;;5009066;28;19931;-64
2023/12/07 07:17:02;;;;;;;24.80;14.93;;;-0.10;99.90;;;;;;5009080;28;20041;-65
2023/12/07 07:19:29;;;;;;;;;;;0.00;99.90;;;;;;5025884;28;20050;-64
2023/12/07 07:21:55;;;;;;;21.88;14.65;;;-0.20;99.90;;;;;;5034226;28;19922;-64
2023/12/07 07:24:21;;;;;;;21.15;13.35;;;-0.10;99.90;;;;;;5017547;28;20050;-64
2023/12/07 07:26:48;;;;;;;21.23;13.20;;;-0.30;99.90;;;;;;5029520;28;20058;-63
2023/12/07 07:29:14;;;;;;;;;;;-0.30;99.90;;;;;;5009750;28;20046;-64
2023/12/07 07:31:40;;;;;;;21.67;13.32;;;-0.20;99.90;;;;;;5009411;28;19925;-64
2023/12/07 07:34:07;;;;;;;23.55;14.75;;;-0.30;99.90;;;;;;5025346;28;20094;-64
2023/12/07 07:36:34;;;;;;;23.20;14.55;;;-0.30;99.90;;;;;;5026717;28;20053;-64
2023/12/07 07:39:00;;;;;;;;;;;-0.30;99.90;;;;;;5043569;28;20133;-63
2023/12/07 07:41:26;;;;;;;27.08;15.75;;;-0.40;99.90;;;;;;5011210;28;20013;-64
2023/12/07 07:43:53;;;;;;;26.58;16.63;;;-0.50;99.90;;;;;;5013573;28;20050;-64
2023/12/07 07:46:19;;;;;;;33.35;16.92;;;-0.40;99.90;;;;;;5012449;28;20463;-64
2023/12/07 07:48:46;;;;;;;24.17;14.77;;;-0.50;99.90;;;;;;5022268;28;20053;-65
2023/12/07 07:51:12;;;;;;;;;;;-0.40;99.90;;;;;;5041054;28;20481;-62
2023/12/07 07:53:38;;;;;;;21.10;14.52;;;-0.50;99.90;;;;;;5043359;28;19963;-63
2023/12/07 07:56:04;;;;;;;;;;;-0.60;99.90;;;;;;5045353;28;20051;-63
2023/12/07 07:58:31;;;;;;;24.90;16.35;;;-0.40;99.90;;;;;;5068569;28;19921;-63
2023/12/07 08:00:57;;;;;;;;;;;-0.20;99.90;;;;;;5029293;28;20385;-63
2023/12/07 08:03:23;;;;;;;24.40;14.77;;;-0.20;99.90;;;;;;5042899;28;19925;-64
2023/12/07 08:05:50;;;;;;;21.98;15.52;;;-0.10;99.90;;;;;;5043640;28;20056;-64
2023/12/07 08:08:16;;;;;;;;;;;-0.30;99.90;;;;;;5045133;28;20370;-63
2023/12/07 08:10:42;;;;;;;24.38;15.55;;;0.00;99.90;;;;;;5040091;28;19952;-63
2023/12/07 08:13:09;;;;;;;25.90;16.60;;;-0.10;99.90;;;;;;5041138;28;20049;-63
2023/12/07 08:15:35;;;;;;;24.88;15.07;;;0.00;99.90;;;;;;5042841;28;20469;-63
2023/12/07 08:18:02;;;;;;;24.35;15.25;;;-0.10;99.90;;;;;;5028751;28;20496;-63
2023/12/07 08:20:28;;;;;;;28.52;16.55;;;0.00;99.90;;;;;;5066937;28;20060;-64
2023/12/07 08:22:54;;;;;;;26.02;18.60;;;-0.20;99.90;;;;;;5042511;28;20373;-64
2023/12/07 08:25:21;;;;;;;;;;;-0.10;99.90;;;;;;5041975;28;20053;-62
2023/12/07 08:27:48;;;;;;;25.25;16.88;;;-0.20;99.90;;;;;;5065038;28;19936;-63
2023/12/07 08:30:14;;;;;;;27.77;17.23;;;-0.10;99.90;;;;;;5026614;28;20484;-63
2023/12/07 08:32:40;;;;;;;26.23;17.17;;;0.10;99.90;;;;;;5043894;28;20064;-63
2023/12/07 08:35:08;;;;;;;;;;;0.00;99.90;;;;;;5049411;28;20085;-64
2023/12/07 08:37:37;;;;;;;27.17;17.80;;;-0.10;99.90;;;;;;5041490;28;19925;-64
2023/12/07 08:40:04;;;;;;;24.80;16.70;;;-0.10;99.90;;;;;;5044093;28;20049;-62
2023/12/07 08:42:31;;;;;;;27.13;17.63;;;0.00;99.90;;;;;;5041365;28;20049;-63
2023/12/07 08:44:58;;;;;;;29.45;17.00;;;0.00;99.90;;;;;;5026982;28;20108;-64
2023/12/07 08:47:27;;;;;;;28.42;17.50;;;-0.10;99.90;;;;;;5023403;28;20079;-63
2023/12/07 08:49:53;;;;;;;28.23;16.67;;;-0.10;99.90;;;;;;5042167;28;20045;-63
2023/12/07 08:52:20;;;;;;;;;;;-0.10;99.90;;;;;;5042299;28;20331;-65
2023/12/07 08:54:46;;;;;;;35.58;19.08;;;0.00;99.90;;;;;;5043087;28;20348;-64
2023/12/07 08:57:13;;;;;;;48.30;18.88;;;0.00;99.90;;;;;;5041782;28;20056;-64
2023/12/07 08:59:39;;;;;;;40.88;19.38;;;-0.20;99.90;;;;;;5041726;28;20448;-63
2023/12/07 09:02:05;;;;;;;47.70;17.25;;;-0.10;99.90;;;;;;5043647;28;20052;-62
2023/12/07 09:04:32;;;;;;;;;;;0.00;99.90;;;;;;5024354;28;20114;-63
2023/12/07 09:06:58;;;;;;;72.80;18.35;;;0.10;99.90;;;;;;5040874;28;19940;-64
2023/12/07 09:09:25;;;;;;;;;;;-0.20;99.90;;;;;;5041186;28;20507;-64
2023/12/07 09:11:51;;;;;;;79.13;17.33;;;-0.10;99.90;;;;;;5043097;28;19928;-63
2023/12/07 09:14:18;;;;;;;45.90;16.33;;;0.00;99.90;;;;;;5042653;28;20053;-63
2023/12/07 09:16:45;;;;;;;41.03;17.30;;;0.00;99.90;;;;;;5024036;28;20084;-63
2023/12/07 09:19:13;;;;;;;83.43;18.80;;;-0.40;99.90;;;;;;5025947;28;20492;-64
2023/12/07 09:21:41;;;;;;;66.32;16.20;;;-0.10;99.90;;;;;;5042258;28;20144;-64
2023/12/07 09:24:07;;;;;;;59.67;16.85;;;-0.20;99.90;;;;;;5038119;28;20410;-64
2023/12/07 09:26:33;;;;;;;58.47;15.68;;;-0.20;99.90;;;;;;5041771;28;20057;-62
2023/12/07 09:29:00;;;;;;;73.60;16.75;;;-0.40;99.90;;;;;;5045759;28;20056;-63
2023/12/07 09:31:27;;;;;;;;;;;-0.30;99.90;;;;;;5040430;28;20068;-63
2023/12/07 09:33:53;;;;;;;97.22;16.65;;;-0.40;99.90;;;;;;5065197;28;19971;-63
2023/12/07 09:36:23;;;;;;;41.63;16.20;;;-0.40;99.90;;;;;;5031716;28;20388;-64
2023/12/07 09:38:50;;;;;;;62.25;16.88;;;-0.20;99.90;;;;;;5032166;28;20050;-64
2023/12/07 09:41:16;;;;;;;;;;;-0.50;99.90;;;;;;5065898;28;20156;-63
2023/12/07 09:43:42;;;;;;;84.80;19.17;;;-0.30;99.90;;;;;;5035558;28;19932;-64
2023/12/07 09:46:09;;;;;;;54.80;15.85;;;-0.20;99.90;;;;;;5033865;28;20053;-64
2023/12/07 09:48:39;;;;;;;81.40;18.02;;;-0.50;99.90;;;;;;5042409;28;20045;-63
2023/12/07 09:51:06;;;;;;;663.92;83.75;;;-0.50;99.90;;;;;;5061435;28;20038;-64
2023/12/07 09:53:34;;;;;;;61.58;18.13;;;-0.10;99.90;;;;;;5026987;28;20114;-63
2023/12/07 09:56:01;;;;;;;65.10;17.70;;;-0.30;99.90;;;;;;5031035;28;20160;-65
2023/12/07 09:58:27;;;;;;;92.72;19.88;;;-0.10;99.90;;;;;;5032122;28;20045;-63
2023/12/07 10:00:55;;;;;;;;;;;0.00;99.90;;;;;;5016129;28;20053;-64
2023/12/07 10:03:23;;;;;;;51.50;17.60;;;-0.30;99.90;;;;;;5031420;28;20020;-62
2023/12/07 10:05:57;;;;;;;67.38;15.90;;;0.00;99.90;;;;;;5047680;28;20064;-63
2023/12/07 10:08:37;;;;;;;74.50;17.40;;;0.00;99.90;;;;;;5031884;28;20054;-64
2023/12/07 10:11:05;;;;;;;77.65;19.40;;;0.00;99.90;;;;;;5031397;28;20117;-63
2023/12/07 10:13:33;;;;;;;98.90;21.60;;;0.00;99.90;;;;;;5031776;28;20060;-64
2023/12/07 10:16:17;;;;;;;59.15;16.50;;;-0.30;99.90;;;;;;5030969;28;20083;-63
2023/12/07 10:18:43;;;;;;;77.82;17.63;;;-0.20;99.90;;;;;;5031412;28;20129;-63
2023/12/07 10:21:10;;;;;;;;;;;-0.40;99.90;;;;;;5048002;28;20347;-64
2023/12/07 10:23:37;;;;;;;46.80;15.18;;;-0.40;99.90;;;;;;5031169;28;19985;-63
2023/12/07 10:26:06;;;;;;;50.40;16.35;;;-0.20;99.90;;;;;;5030947;28;20049;-63
2023/12/07 10:28:37;;;;;;;54.45;16.92;;;-0.20;99.90;;;;;;5031297;28;20462;-63
2023/12/07 10:31:03;;;;;;;70.10;17.05;;;0.00;99.90;;;;;;5047500;28;20045;-64
2023/12/07 10:33:30;;;;;;;92.57;18.63;;;-0.30;99.90;;;;;;5030220;28;20384;-63
2023/12/07 10:35:56;;;;;;;;;;;0.00;99.90;;;;;;5047334;28;20045;-62
2023/12/07 10:38:22;;;;;;;86.72;20.02;;;-0.30;99.90;;;;;;5030973;28;19932;-63
2023/12/07 10:40:50;;;;;;;;;;;-0.10;99.90;;;;;;5030848;28;20053;-64
2023/12/07 10:43:20;;;;;;;83.78;17.60;;;0.00;99.90;;;;;;5030602;28;19929;-64
2023/12/07 10:45:47;;;;;;;93.38;21.20;;;-0.20;99.90;;;;;;5047193;28;20061;-64
2023/12/07 10:48:14;;;;;;;78.60;21.13;;;-0.20;99.90;;;;;;5030281;28;20065;-63
2023/12/07 10:50:44;;;;;;;59.53;17.35;;;0.20;99.90;;;;;;5046956;28;20049;-64
2023/12/07 10:53:20;;;;;;;49.33;18.00;;;0.00;99.90;;;;;;5030378;28;20706;-63
2023/12/07 10:55:55;;;;;;;38.75;17.30;;;-0.10;99.90;;;;;;5063559;28;20095;-64
2023/12/07 10:58:25;;;;;;;46.25;16.73;;;0.10;99.90;;;;;;4998537;28;20053;-63
2023/12/07 11:00:52;;;;;;;67.60;21.95;;;0.20;99.90;;;;;;5030192;28;20767;-64
2023/12/07 11:03:20;;;;;;;54.30;17.95;;;0.10;99.90;;;;;;5030071;28;20053;-64
2023/12/07 11:05:48;;;;;;;64.47;17.90;;;0.20;99.90;;;;;;5045963;28;20064;-65
2023/12/07 11:08:18;;;;;;;78.28;18.25;;;-0.10;99.90;;;;;;5032594;28;20392;-63
2023/12/07 11:11:14;;;;;;;81.38;19.15;;;0.00;99.90;;;;;;5029659;28;20052;-63
2023/12/07 11:14:05;;;;;;;54.88;16.10;;;0.30;99.90;;;;;;4956844;28;20443;-64
2023/12/07 11:16:34;;;;;;;67.75;18.95;;;0.10;99.90;;;;;;5032041;28;20055;-64
2023/12/07 11:19:01;;;;;;;46.30;18.77;;;0.40;99.90;;;;;;5034553;28;20353;-64
2023/12/07 11:21:28;;;;;;;47.42;19.25;;;0.30;99.90;;;;;;5036873;28;20424;-65
2023/12/07 11:23:54;;;;;;;81.53;20.75;;;0.10;99.90;;;;;;5036713;28;20049;-64
2023/12/07 11:26:23;;;;;;;75.82;22.58;;;0.20;99.90;;;;;;5020534;28;20049;-65
2023/12/07 11:28:50;;;;;;;71.78;23.13;;;0.30;99.90;;;;;;5037435;28;20049;-64
2023/12/07 11:31:17;;;;;;;85.45;23.38;;;0.50;99.90;;;;;;5037607;28;20049;-64
2023/12/07 11:33:43;;;;;;;81.25;22.00;;;0.20;99.90;;;;;;5037580;28;20045;-63
2023/12/07 11:36:12;;;;;;;87.53;23.85;;;0.60;99.90;;;;;;5053220;28;20049;-63
2023/12/07 11:39:18;;;;;;;78.95;31.77;;;0.60;99.90;;;;;;5036116;28;20049;-62
2023/12/07 11:41:49;;;;;;;79.25;33.17;;;0.40;99.90;;;;;;5036424;28;20064;-63
2023/12/07 11:44:17;;;;;;;77.10;24.95;;;0.40;99.90;;;;;;5037085;28;20092;-65
2023/12/07 11:46:43;;;;;;;67.38;21.85;;;0.70;99.90;;;;;;5020365;28;20056;-65
2023/12/07 11:49:11;;;;;;;75.63;23.95;;;0.60;99.90;;;;;;5036571;28;20544;-62
2023/12/07 11:51:38;;;;;;;71.50;24.05;;;0.40;99.90;;;;;;5053120;28;20489;-64
2023/12/07 11:54:05;;;;;;;77.15;23.15;;;0.30;99.90;;;;;;5036548;28;20053;-63
2023/12/07 11:56:31;;;;;;;80.57;23.10;;;0.80;99.90;;;;;;5052582;28;20051;-64
2023/12/07 11:58:59;;;;;;;50.92;23.13;;;0.30;99.90;;;;;;5036398;28;20561;-66
2023/12/07 12:01:27;;;;;;;73.78;21.70;;;0.40;99.90;;;;;;5036635;28;20049;-63
2023/12/07 12:03:54;;;;;;;59.33;26.17;;;0.60;99.90;;;;;;5053352;28;20057;-64
2023/12/07 12:06:20;;;;;;;58.20;22.05;;;0.30;99.90;;;;;;5036236;28;20072;-64
2023/12/07 12:08:46;;;;;;;60.55;20.92;;;0.50;99.90;;;;;;5037844;28;20068;-62
2023/12/07 12:11:13;;;;;;;53.63;19.40;;;0.30;99.90;;;;;;5037016;28;20056;-62
2023/12/07 12:13:39;;;;;;;69.05;22.58;;;0.70;99.90;;;;;;5044504;28;20048;-63
2023/12/07 12:16:06;;;;;;;55.60;19.27;;;0.40;99.90;;;;;;5044326;28;20403;-63
2023/12/07 12:18:33;;;;;;;60.55;21.17;;;0.30;99.90;;;;;;5048324;28;20483;-63
2023/12/07 12:21:00;;;;;;;42.90;17.63;;;0.60;99.90;;;;;;5019904;28;20151;-62
2023/12/07 12:23:26;;;;;;;45.75;20.83;;;0.30;99.90;;;;;;5036671;28;20501;-63
2023/12/07 12:25:53;;;;;;;41.97;17.48;;;0.50;99.90;;;;;;5035963;28;20698;-63
2023/12/07 12:28:22;;;;;;;53.45;18.75;;;0.80;99.90;;;;;;5017796;28;20457;-65
2023/12/07 12:30:50;;;;;;;42.03;17.38;;;0.40;99.90;;;;;;5048811;28;20042;-64
2023/12/07 12:33:16;;;;;;;44.63;16.92;;;0.40;99.90;;;;;;5032553;28;20064;-64
2023/12/07 12:35:44;;;;;;;513.78;64.53;;;0.40;99.90;;;;;;5048487;28;20418;-64
2023/12/07 12:38:11;;;;;;;32.78;17.85;;;0.80;99.90;;;;;;5032797;28;20373;-64
2023/12/07 12:40:38;;;;;;;35.30;17.42;;;0.60;99.90;;;;;;5033322;28;20049;-65
2023/12/07 12:43:05;;;;;;;29.17;17.00;;;1.00;99.90;;;;;;5031734;28;20053;-65